地図

経路データ

SID SEASON NUMBER BASIN SUBBASIN NAME ISO_TIME NATURE LAT LON WMO_WIND WMO_PRES WMO_AGENCY TRACK_TYPE DIST2LAND LANDFALL IFLAG USA_AGENCY USA_ATCF_ID USA_LAT USA_LON USA_RECORD USA_STATUS USA_WIND USA_PRES USA_SSHS USA_R34_NE USA_R34_SE USA_R34_SW USA_R34_NW USA_R50_NE USA_R50_SE USA_R50_SW USA_R50_NW USA_R64_NE USA_R64_SE USA_R64_SW USA_R64_NW USA_POCI USA_ROCI USA_RMW USA_EYE TOKYO_LAT TOKYO_LON TOKYO_GRADE TOKYO_WIND TOKYO_PRES TOKYO_R50_DIR TOKYO_R50_LONG TOKYO_R50_SHORT TOKYO_R30_DIR TOKYO_R30_LONG TOKYO_R30_SHORT TOKYO_LAND CMA_LAT CMA_LON CMA_CAT CMA_WIND CMA_PRES HKO_LAT HKO_LON HKO_CAT HKO_WIND HKO_PRES NEWDELHI_LAT NEWDELHI_LON NEWDELHI_GRADE NEWDELHI_WIND NEWDELHI_PRES NEWDELHI_CI NEWDELHI_DP NEWDELHI_POCI REUNION_LAT REUNION_LON REUNION_TYPE REUNION_WIND REUNION_PRES REUNION_TNUM REUNION_CI REUNION_RMW REUNION_R34_NE REUNION_R34_SE REUNION_R34_SW REUNION_R34_NW REUNION_R50_NE REUNION_R50_SE REUNION_R50_SW REUNION_R50_NW REUNION_R64_NE REUNION_R64_SE REUNION_R64_SW REUNION_R64_NW BOM_LAT BOM_LON BOM_TYPE BOM_WIND BOM_PRES BOM_TNUM BOM_CI BOM_RMW BOM_R34_NE BOM_R34_SE BOM_R34_SW BOM_R34_NW BOM_R50_NE BOM_R50_SE BOM_R50_SW BOM_R50_NW BOM_R64_NE BOM_R64_SE BOM_R64_SW BOM_R64_NW BOM_ROCI BOM_POCI BOM_EYE BOM_POS_METHOD BOM_PRES_METHOD NADI_LAT NADI_LON NADI_CAT NADI_WIND NADI_PRES WELLINGTON_LAT WELLINGTON_LON WELLINGTON_WIND WELLINGTON_PRES DS824_LAT DS824_LON DS824_STAGE DS824_WIND DS824_PRES TD9636_LAT TD9636_LON TD9636_STAGE TD9636_WIND TD9636_PRES TD9635_LAT TD9635_LON TD9635_WIND TD9635_PRES TD9635_ROCI NEUMANN_LAT NEUMANN_LON NEUMANN_CLASS NEUMANN_WIND NEUMANN_PRES MLC_LAT MLC_LON MLC_CLASS MLC_WIND MLC_PRES USA_GUST BOM_GUST BOM_GUST_PER REUNION_GUST REUNION_GUST_PER USA_SEAHGT USA_SEARAD_NE USA_SEARAD_SE USA_SEARAD_SW USA_SEARAD_NW STORM_SPEED STORM_DIR
1972293S08182 1973 114 SP MM BEBE 1972-10-19 00:00:00 TS -7.56000 181.700 30 997 wellington main 893 893 O_______OOO_O_ jtwc_sh SH011973 -7.40000 -178.500 -1 -7.80000 -178.000 30 997 -7.40000 181.500 TC 65 -7.40000 -178.500 4 -7.80000 -178.000 TC 15 3 262
1972293S08182 1973 114 SP MM BEBE 1972-10-19 03:00:00 TS -7.58130 181.533 main 908 908 P_______PPP_P_ SH011973 -7.49750 -178.598 -1 -7.71115 -178.291 30 997 -7.49750 -178.598 TC 65 -7.50784 -178.606 4 -7.69251 -178.243 TC 17 3 262
1972293S08182 1973 114 SP MM BEBE 1972-10-19 06:00:00 TS -7.60805 181.365 main 915 915 O_______POP_O_ jtwc_sh SH011973 -7.60000 -178.700 -1 -7.62774 -178.565 30 997 -7.60000 181.300 TC 65 -7.61253 -178.710 4 -7.60000 -178.500 TC 20 3 259
1972293S08182 1973 114 SP MM BEBE 1972-10-19 09:00:00 TS -7.64329 181.199 main 931 923 P_______PPP_P_ SH011973 -7.70750 -178.807 -1 -7.55546 -178.807 30 997 -7.70750 -178.807 TC 65 -7.71095 -178.809 4 -7.53502 -178.773 TC 22 3 257
1972293S08182 1973 114 SP MM BEBE 1972-10-19 12:00:00 TS -7.68000 181.060 30 997 wellington main 930 930 O_______OOO_O_ jtwc_sh SH011973 -7.80000 -178.900 -1 -7.50000 -179.000 30 997 -7.80000 181.100 TC 65 -7.80000 -178.900 4 -7.50000 -179.000 TC 25 2 254
1972293S08182 1973 114 SP MM BEBE 1972-10-19 15:00:00 TS -7.70734 180.972 main 938 938 P_______PPP_P_ SH011973 -7.84999 -178.950 -1 -7.46615 -179.135 32 995 -7.84999 -178.950 TC 65 -7.87811 -178.982 4 -7.49247 -179.122 TC 27 2 249
1972293S08182 1973 114 SP MM BEBE 1972-10-19 18:00:00 TS -7.74097 180.902 main 946 939 O_______POP_O_ jtwc_sh SH011973 -7.90000 -179.000 -1 -7.45488 -179.230 35 993 -7.90000 181.000 TC 65 -7.94999 -179.058 4 -7.50000 -179.200 TC 30 2 242
1972293S08182 1973 114 SP MM BEBE 1972-10-19 21:00:00 TS -7.79311 180.814 main 945 933 P_______PPP_P_ SH011973 -7.99251 -179.100 -1 -7.46617 -179.310 37 991 -7.99251 -179.100 TC 65 -8.02187 -179.129 4 -7.49249 -179.293 TC 30 2 237
1972293S08182 1973 114 SP MM BEBE 1972-10-20 00:00:00 TS -7.86000 180.720 40 990 wellington main 933 932 O_______OOO_O_ jtwc_sh SH011973 -8.10000 -179.200 -1 -7.50000 -179.400 40 990 -8.10000 180.800 TC 65 -8.10000 -179.200 4 -7.50000 -179.400 TC 30 2 232
1972293S08182 1973 114 SP MM BEBE 1972-10-20 03:00:00 TS -7.93707 180.626 main 932 920 P_______PPP_P_ SH011973 -8.19999 -179.250 -1 -7.55754 -179.552 43 987 -8.19999 -179.250 TC 65 -8.19281 -179.275 4 -7.53500 -179.542 TC 32 3 229
1972293S08182 1973 114 SP MM BEBE 1972-10-20 06:00:00 TS -8.02551 180.527 main 920 908 O_______POP_O_ jtwc_sh SH011973 -8.30000 -179.300 -1 -7.63506 -179.715 47 985 -8.30000 180.700 TC 65 -8.29250 -179.350 4 -7.60000 -179.700 TC 35 3 229
1972293S08182 1973 114 SP MM BEBE 1972-10-20 09:00:00 TS -8.12320 180.408 main 908 896 P_______PPP_P_ SH011973 -8.40001 -179.400 -1 -7.72004 -179.871 51 982 -8.40001 -179.400 TC 65 -8.39593 -179.425 4 -7.70001 -179.865 TC 40 3 229
1972293S08182 1973 114 SP MM BEBE 1972-10-20 12:00:00 TS -8.22000 180.300 55 980 wellington main 896 885 O_______OOO_O_ jtwc_sh SH011973 -8.50000 -179.500 -1 -7.80000 180.000 55 980 -8.50000 180.500 TC 65 -8.50000 -179.500 4 -7.80000 180.000 TC 45 2 223
1972293S08182 1973 114 SP MM BEBE 1972-10-20 15:00:00 TS -8.29642 180.243 main 885 874 P_______PPP_P_ SH011973 -8.59999 -179.550 -1 -7.82869 179.941 57 977 -8.59999 -179.550 TC 65 -8.59591 -179.563 4 -7.85749 179.935 TC 50 2 214
1972293S08182 1973 114 SP MM BEBE 1972-10-20 18:00:00 TS -8.36948 180.196 main 874 873 O_______POP_O_ jtwc_sh SH011973 -8.70000 -179.600 -1 -7.85492 179.907 60 975 -8.70000 180.400 TC 65 -8.69246 -179.628 4 -7.90000 179.900 TC 55 2 215
1972293S08182 1973 114 SP MM BEBE 1972-10-20 21:00:00 TS -8.44479 180.134 main 873 862 P_______PPP_P_ SH011973 -8.79999 -179.685 -1 -7.90369 179.870 62 972 -8.79999 -179.685 TC 65 -8.79278 -179.704 4 -7.92748 179.872 TC 60 2 222
1972293S08182 1973 114 SP MM BEBE 1972-10-21 00:00:00 TS -8.54000 180.040 65 970 wellington main 862 839 O_______OOO_O_ jtwc_sh SH011973 -8.90000 -179.800 -1 -8.00000 179.800 65 970 -8.90000 180.200 TC 65 -8.90000 -179.800 4 -8.00000 179.800 TC 65 3 228
1972293S08182 1973 114 SP MM BEBE 1972-10-21 03:00:00 TS -8.66547 179.887 main 839 828 P_______PPP_P_ SH011973 -8.99250 -179.943 -1 -8.15852 179.645 68 966 -8.99250 -179.943 TC 65 -9.01380 -179.941 4 -8.17003 179.615 TC 67 4 229
1972293S08182 1973 114 SP MM BEBE 1972-10-21 06:00:00 TS -8.82054 179.712 main 828 806 O_______POP_O_ jtwc_sh SH011973 -9.10000 179.900 -1 -8.36763 179.458 72 962 -9.10000 179.900 TC 65 -9.13507 179.900 4 -8.40000 179.400 TC 70 5 225
1972293S08182 1973 114 SP MM BEBE 1972-10-21 09:00:00 TS -9.00034 179.545 main 806 785 P_______PPP_P_ SH011973 -9.24250 179.743 -1 -8.61790 179.267 76 958 -9.24250 179.743 TC 65 -9.26380 179.741 4 -8.63499 179.235 TC 72 5 219
1972293S08182 1973 114 SP MM BEBE 1972-10-21 12:00:00 TS -9.20000 179.400 80 955 wellington main 785 763 O_______OOO_O_ jtwc_sh SH011973 -9.40000 179.600 -1 -8.90000 179.100 80 955 -9.40000 179.600 TC 65 -9.40000 179.600 4 -8.90000 179.100 TC 75 5 214
1972293S08182 1973 114 SP MM BEBE 1972-10-21 15:00:00 TS -9.38502 179.280 main 763 741 P_______PPP_P_ SH011973 -9.54078 179.494 -1 -9.20022 179.016 78 956 -9.54078 179.494 TC 65 -9.52240 179.532 4 -9.18500 178.985 TC 77 5 208
1972293S08182 1973 114 SP MM BEBE 1972-10-21 18:00:00 TS -9.59555 179.184 main 741 719 O_______POP_O_ jtwc_sh SH011973 -9.70000 179.400 -1 -9.52737 178.957 77 957 -9.70000 179.400 TC 65 -9.65484 179.480 4 -9.50000 178.900 TC 80 5 198
1972293S08182 1973 114 SP MM BEBE 1972-10-21 21:00:00 TS -9.83967 179.130 main 720 688 P_______PPP_P_ SH011973 -9.88966 179.259 -1 -9.86584 178.894 76 958 -9.88966 179.259 TC -9.80987 179.413 4 -9.84997 178.865 TC 82 6 202
1972293S08182 1973 114 SP MM BEBE 1972-10-22 00:00:00 TS -10.1333 178.967 75 960 wellington main 688 658 P_______OPO_O_ SH011973 -10.1132 179.090 -1 -10.2000 178.800 75 960 -10.1132 179.090 TC -10.0000 179.300 4 -10.2000 178.800 TC 85 7 211
1972293S08182 1973 114 SP MM BEBE 1972-10-22 03:00:00 TS -10.4004 178.788 main 658 629 P_______PPP_P_ SH011973 -10.3706 178.899 -1 -10.4909 178.644 73 961 -10.3706 178.899 TC -10.2026 179.096 4 -10.5075 178.623 TC 87 7 216
1972293S08182 1973 114 SP MM BEBE 1972-10-22 06:00:00 TS -10.6742 178.566 main 629 612 P_______PPP_O_ SH011973 -10.6616 178.693 -1 -10.7775 178.452 72 962 -10.6616 178.693 TC -10.4452 178.845 4 -10.8000 178.400 TC 90 7 218
1972293S08182 1973 114 SP MM BEBE 1972-10-22 09:00:00 TS -10.9668 178.338 main 604 578 P_______PPP_P_ SH011973 -10.9863 178.481 -1 -11.0753 178.234 71 963 -10.9863 178.481 TC -10.7401 178.571 4 -11.0850 178.207 TC 95 8 216
1972293S08182 1973 114 SP MM BEBE 1972-10-22 12:00:00 TS -11.3000 178.100 70 965 wellington main 578 543 P_______OPO_O_ SH011973 -11.3445 178.268 -1 -11.4000 178.000 70 965 -11.3445 178.268 TC -11.1000 178.300 4 -11.4000 178.000 TC 100 9 214
1972293S08182 1973 114 SP MM BEBE 1972-10-22 15:00:00 TS -11.6865 177.840 main 546 512 P_______PPP_P_ SH011973 -11.7363 178.063 -1 -11.7511 177.732 73 960 -11.7363 178.063 TC -11.5232 178.032 4 -11.7850 177.757 TC 105 10 212
1972293S08182 1973 114 SP MM BEBE 1972-10-22 18:00:00 TS -12.1143 177.577 main 512 479 P_______PPP_O_ SH011973 -12.1617 177.872 -1 -12.1328 177.455 77 955 -12.1617 177.872 TC -12.0102 177.776 4 -12.2000 177.500 TC 110 10 210
1972293S08182 1973 114 SP MM BEBE 1972-10-22 21:00:00 TS -12.5584 177.331 main 473 437 P_______PPP_P_ SH011973 -12.6206 177.703 -1 -12.5480 177.201 81 950 -12.6206 177.703 TC -12.5420 177.557 4 -12.5850 177.235 TC 105 10 205
1972293S08182 1973 114 SP MM BEBE 1972-10-23 00:00:00 TS -13.0333 177.133 85 945 wellington main 440 388 P_______OPO_O_ SH011973 -13.1133 177.563 -1 -13.0000 177.000 85 945 -13.1133 177.563 TC -13.1000 177.400 4 -13.0000 177.000 TC 100 10 194
1972293S08182 1973 114 SP MM BEBE 1972-10-23 03:00:00 TS -13.5558 177.072 main 378 332 P_______PPP_P_ SH011973 -13.6397 177.459 -1 -13.5011 176.860 81 950 -13.6397 177.459 TC -13.6533 177.307 4 -13.4775 176.805 TC 97 11 185
1972293S08182 1973 114 SP MM BEBE 1972-10-23 06:00:00 TS -14.1155 177.040 main 332 269 O_______POP_O_ jtwc_sh SH011973 -14.2000 177.400 -1 -14.0348 176.780 77 955 -14.2000 177.400 TC 65 -14.2273 177.280 4 -14.0000 176.700 TC 95 12 0
1972293S08182 1973 114 SP MM BEBE 1972-10-23 09:00:00 TS -14.6992 177.078 main 269 217 P_______PPP_P_ SH011973 -14.7996 177.367 -1 -14.5761 176.760 73 960 -14.7996 177.367 TC 65 -14.8127 177.313 4 -14.5575 176.712 TC 95 12 174
1972293S08182 1973 114 SP MM BEBE 1972-10-23 12:00:00 TS -15.2800 177.160 70 965 wellington main 209 162 O_______OOO_O_ jtwc_sh SH011973 -15.4000 177.400 -1 -15.1000 176.800 70 965 -15.4000 177.400 TC 65 -15.4000 177.400 4 -15.1000 176.800 TC 95 11 171
1972293S08182 1973 114 SP MM BEBE 1972-10-23 15:00:00 TS -15.8145 177.262 main 162 125 P_______PPP_P_ SH011973 -15.9500 177.520 -1 -15.5918 176.880 71 963 -15.9500 177.520 TC 65 -16.0155 177.512 4 -15.5650 176.878 TC 92 11 167
1972293S08182 1973 114 SP MM BEBE 1972-10-23 18:00:00 TS -16.3370 177.418 main 125 67 O_______POP_O_ jtwc_sh SH011973 -16.5000 177.700 -1 -16.0599 177.017 72 962 -16.5000 177.700 TC 65 -16.6249 177.674 4 -16.0000 177.000 TC 90 11 163
1972293S08182 1973 114 SP MM BEBE 1972-10-23 21:00:00 TS -16.8825 177.604 main 67 11 P_______PPP_P_ SH011973 -17.1225 177.885 -1 -16.4981 177.196 73 961 -17.1225 177.885 TC 65 -17.1968 177.875 4 -16.4725 177.177 TC 87 11 160
1972293S08182 1973 114 SP MM BEBE 1972-10-24 00:00:00 TS -17.3800 177.820 75 960 wellington main 11 0 O_______OOO_O_ jtwc_sh SH011973 -17.7000 178.100 -1 -16.9000 177.400 75 960 -17.7000 178.100 TC 65 -17.7000 178.100 4 -16.9000 177.400 TC 85 10 154
1972293S08182 1973 114 SP MM BEBE 1972-10-24 03:00:00 TS -17.7764 178.054 main 0 0 P_______PPP_P_ SH011973 -18.1525 178.343 -1 -17.2528 177.600 72 962 -18.1525 178.343 TC 65 -18.1090 178.333 4 -17.2150 177.650 TC 80 9 148
1972293S08182 1973 114 SP MM BEBE 1972-10-24 06:00:00 TS -18.1040 178.301 main 0 0 O_______POP_O_ jtwc_sh SH011973 -18.5000 178.600 -1 -17.5725 177.821 70 965 -18.5000 178.600 TC 65 -18.4475 178.585 4 -17.5000 177.900 TC 75 8 143
1972293S08182 1973 114 SP MM BEBE 1972-10-24 09:00:00 TS -18.4011 178.543 main 24 24 P_______PPP_P_ SH011973 -18.7725 178.858 -1 -17.8809 178.056 67 967 -18.7725 178.858 TC 65 -18.7372 178.845 4 -17.8424 178.100 TC 72 7 142
1972293S08182 1973 114 SP MM BEBE 1972-10-24 12:00:00 TS -18.6800 178.780 65 970 wellington main 67 67 O_______OOO_O_ jtwc_sh SH011973 -19.0000 179.100 -1 -18.2000 178.300 65 970 -19.0000 179.100 TC 65 -19.0000 179.100 4 -18.2000 178.300 TC 70 7 143
1972293S08182 1973 114 SP MM BEBE 1972-10-24 15:00:00 TS -18.9780 178.997 main 105 105 P_______PPP_P_ SH011973 -19.2499 179.300 -1 -18.5768 178.543 62 972 -19.2499 179.300 TC 65 -19.2711 179.300 4 -18.5425 178.543 TC 67 7 145
1972293S08182 1973 114 SP MM BEBE 1972-10-24 18:00:00 TS -19.2773 179.218 main 144 144 O_______POP_O_ jtwc_sh SH011973 -19.5000 179.500 -1 -18.9649 178.792 60 975 -19.5000 179.500 TC 65 -19.5217 179.499 4 -18.9000 178.800 TC 65 7 145
1972293S08182 1973 114 SP MM BEBE 1972-10-24 21:00:00 TS -19.5829 179.452 main 187 187 P_______PPP_P_ SH011973 -19.7499 179.720 -1 -19.3456 179.046 57 977 -19.7499 179.720 TC 65 -19.7616 179.722 4 -19.3075 179.050 TC 62 8 142
1972293S08182 1973 114 SP MM BEBE 1972-10-25 00:00:00 TS -19.8800 179.720 55 980 wellington main 227 227 O_______OOO_O_ jtwc_sh SH011973 -20.0000 180.000 -1 -19.7000 179.300 55 980 -20.0000 180.000 TC 65 -20.0000 180.000 4 -19.7000 179.300 TC 60 8 136
1972293S08182 1973 114 SP MM BEBE 1972-10-25 03:00:00 TS -20.1321 180.017 main 262 262 P_______PPP_P_ SH011973 -20.2500 -179.630 -1 -19.9528 179.436 55 980 -20.2500 -179.630 TC 65 -20.1851 -179.643 4 -20.0225 179.550 TC 57 8 130
1972293S08182 1973 114 SP MM BEBE 1972-10-25 06:00:00 TS -20.3733 180.352 main 313 313 O_______POP_O_ jtwc_sh SH011973 -20.5000 -179.200 -1 -20.1862 179.589 55 980 -20.5000 180.800 TC 65 -20.3801 -179.230 4 -20.3000 179.800 TC 55 8 126
1972293S08182 1973 114 SP MM BEBE 1972-10-25 09:00:00 TS -20.5926 180.702 main 349 349 P_______PPP_P_ SH011973 -20.6899 -178.757 -1 -20.4517 179.847 55 980 -20.6899 -178.757 TC 65 -20.6350 -178.777 4 -20.4967 179.954 TC 52 9 127
1972293S08182 1973 114 SP MM BEBE 1972-10-25 12:00:00 TS -20.9200 181.140 55 980 wellington main 401 401 O_______OOO_O_ jtwc_sh SH011973 -21.0000 -178.300 -1 -20.8000 -179.700 55 980 -21.0000 181.700 TC 65 -21.0000 -178.300 4 -20.8000 -179.700 TC 50 13 134
1972293S08182 1973 114 SP MM BEBE 1972-10-25 15:00:00 TS -21.5131 181.721 main 493 493 P_______PPP_P_ SH011973 -21.5898 -177.865 -1 -21.3497 -178.895 51 982 -21.5898 -177.865 TC 65 -21.6236 -177.849 4 -21.4128 -178.921 TC 50 17 137
1972293S08182 1973 114 SP MM BEBE 1972-10-25 18:00:00 TS -22.2030 182.407 main 599 599 O_______POP_O_ jtwc_sh SH011973 -22.3000 -177.400 -1 -21.9712 -177.894 47 985 -22.3000 182.600 TC 65 -22.3439 -177.372 4 -22.1000 -177.900 TC 50 19 136
1972293S08182 1973 114 SP MM BEBE 1972-10-25 21:00:00 TS -22.8697 183.148 main 705 705 P_______PPP_P_ SH011973 -23.0323 -176.881 -1 -22.5813 -176.820 43 987 -23.0323 -176.881 TC 65 -23.0422 -176.858 4 -22.6606 -176.820 TC 45 18 131
1972293S08182 1973 114 SP MM BEBE 1972-10-26 00:00:00 TS -23.4000 183.900 40 990 wellington main 802 802 O_______OOO_O_ jtwc_sh SH011973 -23.6000 -176.300 -1 -23.1000 -175.800 40 990 -23.6000 183.700 TC 65 -23.6000 -176.300 4 -23.1000 -175.800 TC 40 15 120
1972293S08182 1973 114 SP MM BEBE 1972-10-26 03:00:00 TS -23.6398 184.588 main 868 868 P_______PPP_P_ SH011973 -23.7824 -175.664 -1 -23.4706 -174.936 40 990 -23.7824 -175.664 TC 65 -23.8132 -175.692 4 -23.3938 -175.046 TC 35 13 106
1972293S08182 1973 114 SP MM BEBE 1972-10-26 06:00:00 TS -23.7483 185.257 main 928 928 O_______POP_O_ jtwc_sh SH011973 -23.8000 -175.000 -1 -23.7163 -174.212 40 990 -23.8000 185.000 TC 65 -23.8821 -175.046 4 -23.6000 -174.400 TC 30 12 100
1972293S08182 1973 114 SP MM BEBE 1972-10-26 09:00:00 TS -23.8588 185.928 main 989 989 P_______PPP_P_ SH011973 -23.8697 -174.349 -1 -23.8792 -173.583 40 990 -23.8697 -174.349 TC 65 -23.9099 -174.377 4 -23.8075 -173.677 TC 30 12 102
1972293S08182 1973 114 SP MM BEBE 1972-10-26 12:00:00 TS -24.0000 186.580 40 990 wellington main 1051 1051 O_______OOO_O_ jtwc_sh SH011973 -24.0000 -173.700 -1 -24.0000 -173.000 40 990 -24.0000 186.300 TC 65 -24.0000 -173.700 4 -24.0000 -173.000 TC 30 12 107
1972293S08182 1973 114 SP MM BEBE 1972-10-26 15:00:00 TS -24.2185 187.183 main 1113 1113 P________PP_P_ SH011973 -24.2471 -173.057 -1 -24.2471 -173.057 TC 65 -24.2453 -172.862 4 -24.1977 -172.420 TC 27 12 115
1972293S08182 1973 114 SP MM BEBE 1972-10-26 18:00:00 TS -24.5254 187.797 main 1182 1182 O________OP_O_ jtwc_sh SH011973 -24.6000 -172.400 -1 -24.6000 187.600 TC 65 -24.5728 -172.043 4 -24.4000 -171.900 TC 25 14 120
1972293S08182 1973 114 SP MM BEBE 1972-10-26 21:00:00 TS -24.9243 188.513 main 1243 1243 P________PP___ SH011973 -24.9983 -171.544 -1 -24.9983 -171.544 TC 65 -24.9884 -171.376 4 TC 15 132
1972293S08182 1973 114 SP MM BEBE 1972-10-27 00:00:00 TS -25.5000 189.000 40 990 wellington main 1314 1314 O________OO___ jtwc_sh SH011973 -25.5000 -171.000 -1 -25.5000 189.000 TC 65 -25.5000 -171.000 4 12 173
1972293S08182 1973 114 SP MM BEBE 1972-10-27 03:00:00 TS -26.0978 188.685 main 1362 1361 P________PP___ SH011973 -26.1049 -171.233 -1 -26.1049 -171.233 TC 65 -26.0836 -171.479 4 15 213
1972293S08182 1973 114 SP MM BEBE 1972-10-27 06:00:00 TS -26.7862 188.067 main 1369 1362 O________OP___ jtwc_sh SH011973 -26.8000 -171.800 -1 -26.8000 188.200 TC 65 -26.7586 -172.200 4 18 219
1972293S08182 1973 114 SP MM BEBE 1972-10-27 09:00:00 TS -27.5164 187.376 main 1376 1328 P________PP___ SH011973 -27.5233 -172.574 -1 -27.5233 -172.574 TC 65 -27.5026 -172.724 4 16 201
1972293S08182 1973 114 SP MM BEBE 1972-10-27 12:00:00 TS -28.3000 187.400 30 997 wellington main 1328 1322 O________OO___ jtwc_sh SH011973 -28.3000 -172.600 -1 -28.3000 187.400 TC 65 -28.3000 -172.600 4 22 136
1972293S08182 1973 114 SP MM BEBE 1972-10-27 15:00:00 TS -29.0999 189.117 main 1364 1364 P________PP___ SH011973 -29.0999 -170.837 -1 -29.0999 -170.837 TC 65 -29.1000 -170.975 4 40 114
1972293S08182 1973 114 SP MM BEBE 1972-10-27 18:00:00 TS -29.9040 191.579 main 1478 1478 O________OP___ jtwc_sh SH011973 -29.9000 -168.300 -1 -29.9000 191.700 TC 65 -29.9121 -168.664 4 45 111
1972293S08182 1973 114 SP MM BEBE 1972-10-27 21:00:00 TS -30.7010 193.983 main 1611 1611 P________PP___ SH011973 -30.6967 -165.942 -1 -30.6967 -165.942 TC 65 -30.7096 -166.166 4 41 113
1972293S08182 1973 114 SP MM BEBE 1972-10-28 00:00:00 TS -31.5000 196.000 30 997 wellington main 1729 1729 O________OO___ jtwc_sh SH011973 -31.5000 -164.000 -1 -31.5000 196.000 TC 65 -31.5000 -164.000 4 31 122
1972293S08182 1973 114 SP MM BEBE 1972-10-28 03:00:00 TS -32.3305 197.040 main 1773 1773 P________PP___ SH011973 -32.3285 -163.012 -1 -32.3285 -163.012 TC 65 -32.3345 -162.857 4 22 141
1972293S08182 1973 114 SP MM BEBE 1972-10-28 06:00:00 TS -33.2027 197.622 main 1785 1785 O________OP___ jtwc_sh SH011973 -33.2000 -162.500 -1 -33.2000 197.500 TC 65 -33.2080 -162.135 4 20 151
1972293S08182 1973 114 SP MM BEBE 1972-10-28 09:00:00 TS -34.1010 198.202 main 1802 1799 P________PP___ SH011973 -34.0995 -161.861 -1 -34.0995 -161.861 TC 65 -34.1040 -161.672 4 20 154
1972293S08182 1973 114 SP MM BEBE 1972-10-28 12:00:00 TS -35.0000 198.700 main 1817 1817 O________OO___ jtwc_sh SH011973 -35.0000 -161.300 -1 -35.0000 198.700 TC 65 -35.0000 -161.300 4 20 155
1972293S08182 1973 114 SP MM BEBE 1972-10-28 15:00:00 TS -35.8626 199.213 main 1836 1836 P________PP___ SH011973 -35.8571 -160.783 -1 -35.8571 -160.783 TC 65 -35.8738 -160.794 4 19 155
1972293S08182 1973 114 SP MM BEBE 1972-10-28 18:00:00 TS -36.7132 199.689 main 1863 1861 O________OP___ jtwc_sh SH011973 -36.7000 -160.300 -1 -36.7000 199.700 TC 65 -36.7396 -160.333 4 19 156
1972293S08182 1973 114 SP MM BEBE 1972-10-28 21:00:00 TS -37.5715 200.158 main 1892 1891 P________PP___ SH011973 -37.5642 -159.835 -1 -37.5642 -159.835 TC 65 -37.5859 -159.856 4 19 155
1972293S08182 1973 114 SP MM BEBE 1972-10-29 00:00:00 TS -38.4000 200.700 main 1926 1926 O________OO___ jtwc_sh SH011973 -38.4000 -159.300 -1 -38.4000 200.700 TC 65 -38.4000 -159.300 4 19 149
1972293S08182 1973 114 SP MM BEBE 1972-10-29 03:00:00 TS -39.1720 201.389 main 1981 1981 P________PP___ SH011973 -39.1722 -158.609 -1 -39.1722 -158.609 TC 50 -39.1718 -158.616 4 19 142
1972293S08182 1973 114 SP MM BEBE 1972-10-29 06:00:00 TS -39.9021 202.194 main 2047 2047 O________OP___ jtwc_sh SH011973 -39.9000 -157.800 -1 -39.9000 202.200 TC 35 -39.9062 -157.817 4 19 138
1972293S08182 1973 114 SP MM BEBE 1972-10-29 09:00:00 TS -40.6084 203.074 main 2123 2123 P________PP___ SH011973 -40.6064 -156.921 -1 -40.6064 -156.921 TC 30 -40.6124 -156.935 4 20 136
1972293S08182 1973 114 SP MM BEBE 1972-10-29 12:00:00 TS -41.3000 204.000 main 2199 O________OO___ jtwc_sh SH011973 -41.3000 -156.000 -1 -41.3000 204.000 TC 25 -41.3000 -156.000 6 20 135

デジタル台風データ・検索

IBTrACS Databaseについて

本データベースは、米国NOAAが公開する1842年以降の世界の熱帯低気圧のベストトラックデータアーカイブInternational Best Track Archive for Climate Stewardship (IBTrACS)を、ウェブで閲覧しやすい形式に変換したものです。

最終更新日:2021-10-08